sensor_id;sensor_type;location;lat;lon;timestamp;P1;durP1;ratioP1;P2;durP2;ratioP2
15254;SDS011;7730;49.610;11.136;2022-09-30T00:01:24;7.80;;;3.13;;
15254;SDS011;7730;49.610;11.136;2022-09-30T00:03:53;7.47;;;3.28;;
15254;SDS011;7730;49.610;11.136;2022-09-30T00:06:21;5.65;;;2.70;;
15254;SDS011;7730;49.610;11.136;2022-09-30T00:08:49;5.63;;;2.80;;
15254;SDS011;7730;49.610;11.136;2022-09-30T00:11:18;7.53;;;3.00;;
15254;SDS011;7730;49.610;11.136;2022-09-30T00:13:45;7.45;;;2.80;;
15254;SDS011;7730;49.610;11.136;2022-09-30T00:16:14;7.22;;;3.00;;
15254;SDS011;7730;49.610;11.136;2022-09-30T00:18:42;4.80;;;2.63;;
15254;SDS011;7730;49.610;11.136;2022-09-30T00:21:09;6.22;;;2.83;;
15254;SDS011;7730;49.610;11.136;2022-09-30T00:23:38;7.75;;;2.92;;
15254;SDS011;7730;49.610;11.136;2022-09-30T00:26:07;7.78;;;2.80;;
15254;SDS011;7730;49.610;11.136;2022-09-30T00:28:36;6.38;;;2.53;;
15254;SDS011;7730;49.610;11.136;2022-09-30T00:31:04;6.93;;;2.95;;
15254;SDS011;7730;49.610;11.136;2022-09-30T00:33:31;6.20;;;2.90;;
15254;SDS011;7730;49.610;11.136;2022-09-30T00:35:59;6.40;;;2.75;;
15254;SDS011;7730;49.610;11.136;2022-09-30T00:38:26;6.40;;;2.90;;
15254;SDS011;7730;49.610;11.136;2022-09-30T00:40:54;4.65;;;2.60;;
15254;SDS011;7730;49.610;11.136;2022-09-30T00:43:37;8.50;;;3.10;;
15254;SDS011;7730;49.610;11.136;2022-09-30T00:46:06;5.45;;;2.63;;
15254;SDS011;7730;49.610;11.136;2022-09-30T00:48:35;7.35;;;2.80;;
15254;SDS011;7730;49.610;11.136;2022-09-30T00:51:04;6.75;;;2.80;;
15254;SDS011;7730;49.610;11.136;2022-09-30T00:53:33;5.75;;;2.90;;
15254;SDS011;7730;49.610;11.136;2022-09-30T00:56:03;6.50;;;3.00;;
15254;SDS011;7730;49.610;11.136;2022-09-30T00:58:33;7.20;;;2.90;;
15254;SDS011;7730;49.610;11.136;2022-09-30T01:01:01;5.97;;;2.85;;
15254;SDS011;7730;49.610;11.136;2022-09-30T01:03:30;6.20;;;2.90;;
15254;SDS011;7730;49.610;11.136;2022-09-30T01:05:57;8.73;;;3.47;;
15254;SDS011;7730;49.610;11.136;2022-09-30T01:08:24;10.52;;;4.28;;
15254;SDS011;7730;49.610;11.136;2022-09-30T01:10:52;9.30;;;3.67;;
15254;SDS011;7730;49.610;11.136;2022-09-30T01:13:20;9.02;;;3.88;;
15254;SDS011;7730;49.610;11.136;2022-09-30T01:15:53;10.13;;;4.40;;
15254;SDS011;7730;49.610;11.136;2022-09-30T01:18:24;7.60;;;3.63;;
15254;SDS011;7730;49.610;11.136;2022-09-30T01:26:31;7.25;;;3.35;;
15254;SDS011;7730;49.610;11.136;2022-09-30T01:32:01;8.20;;;3.20;;
15254;SDS011;7730;49.610;11.136;2022-09-30T01:34:32;6.75;;;3.05;;
15254;SDS011;7730;49.610;11.136;2022-09-30T01:37:06;7.63;;;3.03;;
15254;SDS011;7730;49.610;11.136;2022-09-30T01:39:37;6.40;;;2.95;;
15254;SDS011;7730;49.610;11.136;2022-09-30T01:42:09;6.95;;;2.88;;
15254;SDS011;7730;49.610;11.136;2022-09-30T01:44:42;6.65;;;3.20;;
15254;SDS011;7730;49.610;11.136;2022-09-30T01:47:16;8.52;;;3.40;;
15254;SDS011;7730;49.610;11.136;2022-09-30T01:49:51;7.28;;;3.50;;
15254;SDS011;7730;49.610;11.136;2022-09-30T01:52:20;6.43;;;3.30;;
15254;SDS011;7730;49.610;11.136;2022-09-30T01:54:49;9.23;;;3.53;;
15254;SDS011;7730;49.610;11.136;2022-09-30T01:57:20;6.32;;;3.38;;
15254;SDS011;7730;49.610;11.136;2022-09-30T01:59:49;7.50;;;3.50;;
15254;SDS011;7730;49.610;11.136;2022-09-30T02:02:19;5.95;;;2.90;;
15254;SDS011;7730;49.610;11.136;2022-09-30T02:04:48;6.70;;;3.20;;
15254;SDS011;7730;49.610;11.136;2022-09-30T02:07:18;5.85;;;3.00;;
15254;SDS011;7730;49.610;11.136;2022-09-30T02:09:49;6.93;;;3.08;;
15254;SDS011;7730;49.610;11.136;2022-09-30T02:12:18;6.90;;;2.80;;
15254;SDS011;7730;49.610;11.136;2022-09-30T02:14:48;5.40;;;2.92;;
15254;SDS011;7730;49.610;11.136;2022-09-30T02:17:16;8.20;;;2.80;;
15254;SDS011;7730;49.610;11.136;2022-09-30T02:19:46;5.13;;;2.80;;
15254;SDS011;7730;49.610;11.136;2022-09-30T02:22:17;5.57;;;2.72;;
15254;SDS011;7730;49.610;11.136;2022-09-30T02:24:46;6.80;;;3.22;;
15254;SDS011;7730;49.610;11.136;2022-09-30T02:27:14;9.73;;;3.53;;
15254;SDS011;7730;49.610;11.136;2022-09-30T02:29:44;8.60;;;3.40;;
15254;SDS011;7730;49.610;11.136;2022-09-30T02:32:14;7.28;;;3.58;;
15254;SDS011;7730;49.610;11.136;2022-09-30T02:34:44;8.85;;;3.60;;
15254;SDS011;7730;49.610;11.136;2022-09-30T02:37:16;9.95;;;3.55;;
15254;SDS011;7730;49.610;11.136;2022-09-30T02:39:46;8.55;;;3.40;;
15254;SDS011;7730;49.610;11.136;2022-09-30T02:42:15;8.60;;;3.38;;
15254;SDS011;7730;49.610;11.136;2022-09-30T02:44:44;9.27;;;3.50;;
15254;SDS011;7730;49.610;11.136;2022-09-30T02:47:11;6.40;;;2.92;;
15254;SDS011;7730;49.610;11.136;2022-09-30T02:49:43;7.22;;;3.20;;
15254;SDS011;7730;49.610;11.136;2022-09-30T02:52:14;6.97;;;3.00;;
15254;SDS011;7730;49.610;11.136;2022-09-30T02:54:46;7.13;;;3.22;;
15254;SDS011;7730;49.610;11.136;2022-09-30T02:57:15;6.53;;;3.00;;
15254;SDS011;7730;49.610;11.136;2022-09-30T02:59:43;5.82;;;2.70;;
15254;SDS011;7730;49.610;11.136;2022-09-30T03:02:11;6.00;;;2.97;;
15254;SDS011;7730;49.610;11.136;2022-09-30T03:04:38;5.43;;;2.90;;
15254;SDS011;7730;49.610;11.136;2022-09-30T03:07:06;6.78;;;3.13;;
15254;SDS011;7730;49.610;11.136;2022-09-30T03:09:34;8.65;;;3.10;;
15254;SDS011;7730;49.610;11.136;2022-09-30T03:12:05;9.20;;;3.55;;
15254;SDS011;7730;49.610;11.136;2022-09-30T03:14:38;12.57;;;3.70;;
15254;SDS011;7730;49.610;11.136;2022-09-30T03:19:53;8.00;;;3.22;;
15254;SDS011;7730;49.610;11.136;2022-09-30T03:22:28;11.75;;;4.10;;
15254;SDS011;7730;49.610;11.136;2022-09-30T03:25:04;10.38;;;4.30;;
15254;SDS011;7730;49.610;11.136;2022-09-30T03:27:40;10.07;;;4.28;;
15254;SDS011;7730;49.610;11.136;2022-09-30T03:30:12;16.23;;;4.60;;
15254;SDS011;7730;49.610;11.136;2022-09-30T03:32:44;9.90;;;4.03;;
15254;SDS011;7730;49.610;11.136;2022-09-30T03:35:16;8.90;;;3.50;;
15254;SDS011;7730;49.610;11.136;2022-09-30T03:37:45;9.35;;;4.07;;
15254;SDS011;7730;49.610;11.136;2022-09-30T03:40:20;12.80;;;4.50;;
15254;SDS011;7730;49.610;11.136;2022-09-30T03:42:53;13.70;;;4.68;;
15254;SDS011;7730;49.610;11.136;2022-09-30T03:45:22;15.10;;;4.50;;
15254;SDS011;7730;49.610;11.136;2022-09-30T03:47:52;22.95;;;4.75;;
15254;SDS011;7730;49.610;11.136;2022-09-30T03:50:22;12.48;;;3.60;;
15254;SDS011;7730;49.610;11.136;2022-09-30T03:52:50;11.00;;;3.55;;
15254;SDS011;7730;49.610;11.136;2022-09-30T03:55:17;7.45;;;3.45;;
15254;SDS011;7730;49.610;11.136;2022-09-30T03:57:46;10.75;;;3.50;;
15254;SDS011;7730;49.610;11.136;2022-09-30T04:00:15;8.20;;;3.25;;
15254;SDS011;7730;49.610;11.136;2022-09-30T04:02:43;26.17;;;4.30;;
15254;SDS011;7730;49.610;11.136;2022-09-30T04:05:10;24.45;;;3.95;;
15254;SDS011;7730;49.610;11.136;2022-09-30T04:07:37;10.88;;;3.55;;
15254;SDS011;7730;49.610;11.136;2022-09-30T04:10:04;13.93;;;3.38;;
15254;SDS011;7730;49.610;11.136;2022-09-30T04:12:32;24.35;;;4.22;;
15254;SDS011;7730;49.610;11.136;2022-09-30T04:14:59;20.90;;;6.78;;
15254;SDS011;7730;49.610;11.136;2022-09-30T04:17:27;13.55;;;4.28;;
15254;SDS011;7730;49.610;11.136;2022-09-30T04:19:54;12.63;;;4.32;;
15254;SDS011;7730;49.610;11.136;2022-09-30T04:22:21;12.15;;;4.10;;
15254;SDS011;7730;49.610;11.136;2022-09-30T04:24:48;14.07;;;4.40;;
15254;SDS011;7730;49.610;11.136;2022-09-30T04:27:15;19.85;;;4.45;;
15254;SDS011;7730;49.610;11.136;2022-09-30T04:29:43;15.60;;;4.38;;
15254;SDS011;7730;49.610;11.136;2022-09-30T04:32:10;11.18;;;3.83;;
15254;SDS011;7730;49.610;11.136;2022-09-30T04:34:38;14.18;;;4.30;;
15254;SDS011;7730;49.610;11.136;2022-09-30T04:37:05;16.30;;;4.15;;
15254;SDS011;7730;49.610;11.136;2022-09-30T04:39:32;18.27;;;4.07;;
15254;SDS011;7730;49.610;11.136;2022-09-30T04:42:00;14.30;;;3.80;;
15254;SDS011;7730;49.610;11.136;2022-09-30T04:44:27;17.83;;;3.90;;
15254;SDS011;7730;49.610;11.136;2022-09-30T04:46:54;11.98;;;3.90;;
15254;SDS011;7730;49.610;11.136;2022-09-30T04:49:21;11.30;;;3.45;;
15254;SDS011;7730;49.610;11.136;2022-09-30T04:51:49;9.70;;;3.65;;
15254;SDS011;7730;49.610;11.136;2022-09-30T04:54:16;17.27;;;3.50;;
15254;SDS011;7730;49.610;11.136;2022-09-30T04:56:43;23.33;;;3.67;;
15254;SDS011;7730;49.610;11.136;2022-09-30T04:59:10;9.18;;;3.40;;
15254;SDS011;7730;49.610;11.136;2022-09-30T05:01:38;10.00;;;3.40;;
15254;SDS011;7730;49.610;11.136;2022-09-30T05:04:06;11.10;;;3.53;;
15254;SDS011;7730;49.610;11.136;2022-09-30T05:06:34;9.25;;;3.60;;
15254;SDS011;7730;49.610;11.136;2022-09-30T05:09:02;22.10;;;3.60;;
15254;SDS011;7730;49.610;11.136;2022-09-30T05:11:29;17.33;;;3.67;;
15254;SDS011;7730;49.610;11.136;2022-09-30T05:13:56;13.60;;;3.92;;
15254;SDS011;7730;49.610;11.136;2022-09-30T05:16:23;17.88;;;3.90;;
15254;SDS011;7730;49.610;11.136;2022-09-30T05:18:51;12.77;;;3.58;;
15254;SDS011;7730;49.610;11.136;2022-09-30T05:21:18;13.88;;;3.55;;
15254;SDS011;7730;49.610;11.136;2022-09-30T05:23:46;17.60;;;4.00;;
15254;SDS011;7730;49.610;11.136;2022-09-30T05:26:14;27.25;;;5.10;;
15254;SDS011;7730;49.610;11.136;2022-09-30T05:28:41;46.20;;;5.72;;
15254;SDS011;7730;49.610;11.136;2022-09-30T05:31:08;24.88;;;4.97;;
15254;SDS011;7730;49.610;11.136;2022-09-30T05:33:36;40.42;;;6.30;;
15254;SDS011;7730;49.610;11.136;2022-09-30T05:36:04;27.20;;;5.70;;
15254;SDS011;7730;49.610;11.136;2022-09-30T05:38:31;17.65;;;5.20;;
15254;SDS011;7730;49.610;11.136;2022-09-30T05:41:04;19.90;;;4.35;;
15254;SDS011;7730;49.610;11.136;2022-09-30T05:43:32;12.73;;;3.60;;
15254;SDS011;7730;49.610;11.136;2022-09-30T05:45:59;16.27;;;4.80;;
15254;SDS011;7730;49.610;11.136;2022-09-30T05:48:26;20.23;;;4.85;;
15254;SDS011;7730;49.610;11.136;2022-09-30T05:50:54;14.63;;;4.25;;
15254;SDS011;7730;49.610;11.136;2022-09-30T05:53:21;36.30;;;5.18;;
15254;SDS011;7730;49.610;11.136;2022-09-30T05:55:49;27.30;;;4.82;;
15254;SDS011;7730;49.610;11.136;2022-09-30T05:58:16;41.58;;;5.20;;
15254;SDS011;7730;49.610;11.136;2022-09-30T06:00:45;15.85;;;6.38;;
15254;SDS011;7730;49.610;11.136;2022-09-30T06:03:13;20.85;;;7.10;;
15254;SDS011;7730;49.610;11.136;2022-09-30T06:05:40;30.48;;;8.23;;
15254;SDS011;7730;49.610;11.136;2022-09-30T06:08:08;18.80;;;5.78;;
15254;SDS011;7730;49.610;11.136;2022-09-30T06:10:35;12.85;;;4.82;;
15254;SDS011;7730;49.610;11.136;2022-09-30T06:13:05;13.93;;;4.82;;
15254;SDS011;7730;49.610;11.136;2022-09-30T06:15:32;27.45;;;7.55;;
15254;SDS011;7730;49.610;11.136;2022-09-30T06:18:02;12.77;;;5.43;;
15254;SDS011;7730;49.610;11.136;2022-09-30T06:20:29;15.20;;;4.65;;
15254;SDS011;7730;49.610;11.136;2022-09-30T06:22:57;40.13;;;6.60;;
15254;SDS011;7730;49.610;11.136;2022-09-30T06:25:25;31.67;;;8.77;;
15254;SDS011;7730;49.610;11.136;2022-09-30T06:27:52;12.15;;;4.07;;
15254;SDS011;7730;49.610;11.136;2022-09-30T06:30:19;23.90;;;4.15;;
15254;SDS011;7730;49.610;11.136;2022-09-30T06:32:46;16.20;;;4.25;;
15254;SDS011;7730;49.610;11.136;2022-09-30T06:35:15;19.25;;;3.60;;
15254;SDS011;7730;49.610;11.136;2022-09-30T06:37:43;12.00;;;4.32;;
15254;SDS011;7730;49.610;11.136;2022-09-30T06:40:11;12.80;;;3.90;;
15254;SDS011;7730;49.610;11.136;2022-09-30T06:42:38;15.45;;;3.80;;
15254;SDS011;7730;49.610;11.136;2022-09-30T06:45:06;18.40;;;4.05;;
15254;SDS011;7730;49.610;11.136;2022-09-30T06:47:34;16.65;;;3.70;;
15254;SDS011;7730;49.610;11.136;2022-09-30T06:50:01;15.13;;;3.30;;
15254;SDS011;7730;49.610;11.136;2022-09-30T06:52:29;14.93;;;3.20;;
15254;SDS011;7730;49.610;11.136;2022-09-30T06:54:56;14.48;;;3.35;;
15254;SDS011;7730;49.610;11.136;2022-09-30T06:57:23;15.63;;;3.10;;
15254;SDS011;7730;49.610;11.136;2022-09-30T06:59:51;10.80;;;3.30;;
15254;SDS011;7730;49.610;11.136;2022-09-30T07:02:19;12.95;;;3.17;;
15254;SDS011;7730;49.610;11.136;2022-09-30T07:04:46;9.40;;;2.88;;
15254;SDS011;7730;49.610;11.136;2022-09-30T07:07:14;12.48;;;3.45;;
15254;SDS011;7730;49.610;11.136;2022-09-30T07:09:42;16.63;;;3.53;;
15254;SDS011;7730;49.610;11.136;2022-09-30T07:12:09;10.63;;;3.17;;
15254;SDS011;7730;49.610;11.136;2022-09-30T07:14:36;12.55;;;3.47;;
15254;SDS011;7730;49.610;11.136;2022-09-30T07:17:04;15.88;;;3.45;;
15254;SDS011;7730;49.610;11.136;2022-09-30T07:19:32;11.10;;;3.85;;
15254;SDS011;7730;49.610;11.136;2022-09-30T07:21:59;15.23;;;5.40;;
15254;SDS011;7730;49.610;11.136;2022-09-30T07:24:48;19.23;;;6.82;;
15254;SDS011;7730;49.610;11.136;2022-09-30T07:27:15;13.20;;;5.47;;
15254;SDS011;7730;49.610;11.136;2022-09-30T07:29:43;11.27;;;4.50;;
15254;SDS011;7730;49.610;11.136;2022-09-30T07:32:10;9.27;;;4.00;;
15254;SDS011;7730;49.610;11.136;2022-09-30T07:34:37;11.05;;;3.90;;
15254;SDS011;7730;49.610;11.136;2022-09-30T07:37:08;21.88;;;3.80;;
15254;SDS011;7730;49.610;11.136;2022-09-30T07:39:36;23.65;;;4.10;;
15254;SDS011;7730;49.610;11.136;2022-09-30T07:42:04;13.13;;;3.80;;
15254;SDS011;7730;49.610;11.136;2022-09-30T07:44:31;11.63;;;4.82;;
15254;SDS011;7730;49.610;11.136;2022-09-30T07:47:01;12.10;;;5.10;;
15254;SDS011;7730;49.610;11.136;2022-09-30T07:49:28;13.00;;;5.18;;
15254;SDS011;7730;49.610;11.136;2022-09-30T07:51:57;19.58;;;7.18;;
15254;SDS011;7730;49.610;11.136;2022-09-30T07:54:24;16.35;;;6.80;;
15254;SDS011;7730;49.610;11.136;2022-09-30T07:56:52;13.75;;;5.10;;
15254;SDS011;7730;49.610;11.136;2022-09-30T07:59:20;10.93;;;4.50;;
15254;SDS011;7730;49.610;11.136;2022-09-30T08:01:47;8.68;;;3.70;;
15254;SDS011;7730;49.610;11.136;2022-09-30T08:04:16;11.10;;;4.15;;
15254;SDS011;7730;49.610;11.136;2022-09-30T08:06:43;13.35;;;5.10;;
15254;SDS011;7730;49.610;11.136;2022-09-30T08:09:11;15.80;;;5.40;;
15254;SDS011;7730;49.610;11.136;2022-09-30T08:11:39;11.07;;;4.95;;
15254;SDS011;7730;49.610;11.136;2022-09-30T08:14:07;16.10;;;6.50;;
15254;SDS011;7730;49.610;11.136;2022-09-30T08:16:35;14.80;;;6.25;;
15254;SDS011;7730;49.610;11.136;2022-09-30T08:19:02;14.00;;;5.38;;
15254;SDS011;7730;49.610;11.136;2022-09-30T08:21:29;15.60;;;5.20;;
15254;SDS011;7730;49.610;11.136;2022-09-30T08:23:56;12.68;;;5.30;;
15254;SDS011;7730;49.610;11.136;2022-09-30T08:26:23;15.40;;;6.10;;
15254;SDS011;7730;49.610;11.136;2022-09-30T08:28:51;13.18;;;5.22;;
15254;SDS011;7730;49.610;11.136;2022-09-30T08:31:18;13.85;;;5.55;;
15254;SDS011;7730;49.610;11.136;2022-09-30T08:33:47;12.25;;;4.80;;
15254;SDS011;7730;49.610;11.136;2022-09-30T08:36:15;11.18;;;4.22;;
15254;SDS011;7730;49.610;11.136;2022-09-30T08:38:42;10.32;;;4.57;;
15254;SDS011;7730;49.610;11.136;2022-09-30T08:41:16;14.73;;;5.03;;
15254;SDS011;7730;49.610;11.136;2022-09-30T08:43:52;8.85;;;4.00;;
15254;SDS011;7730;49.610;11.136;2022-09-30T08:46:22;11.50;;;5.43;;
15254;SDS011;7730;49.610;11.136;2022-09-30T08:48:57;14.32;;;5.80;;
15254;SDS011;7730;49.610;11.136;2022-09-30T08:51:29;8.30;;;4.13;;
15254;SDS011;7730;49.610;11.136;2022-09-30T08:53:58;11.10;;;4.15;;
15254;SDS011;7730;49.610;11.136;2022-09-30T08:56:27;8.95;;;4.10;;
15254;SDS011;7730;49.610;11.136;2022-09-30T08:58:55;12.57;;;4.40;;
15254;SDS011;7730;49.610;11.136;2022-09-30T09:01:26;12.77;;;5.22;;
15254;SDS011;7730;49.610;11.136;2022-09-30T09:03:56;10.38;;;4.22;;
15254;SDS011;7730;49.610;11.136;2022-09-30T09:06:25;21.63;;;4.85;;
15254;SDS011;7730;49.610;11.136;2022-09-30T09:09:01;22.38;;;4.45;;
15254;SDS011;7730;49.610;11.136;2022-09-30T09:11:35;14.02;;;4.22;;
15254;SDS011;7730;49.610;11.136;2022-09-30T09:14:05;10.90;;;3.60;;
15254;SDS011;7730;49.610;11.136;2022-09-30T09:16:38;8.45;;;3.40;;
15254;SDS011;7730;49.610;11.136;2022-09-30T09:19:09;8.10;;;3.40;;
15254;SDS011;7730;49.610;11.136;2022-09-30T09:21:39;12.43;;;3.72;;
15254;SDS011;7730;49.610;11.136;2022-09-30T09:24:11;12.98;;;3.70;;
15254;SDS011;7730;49.610;11.136;2022-09-30T09:26:39;10.35;;;3.72;;
15254;SDS011;7730;49.610;11.136;2022-09-30T09:29:10;11.27;;;4.20;;
15254;SDS011;7730;49.610;11.136;2022-09-30T09:31:43;16.35;;;3.90;;
15254;SDS011;7730;49.610;11.136;2022-09-30T09:34:13;11.80;;;4.25;;
15254;SDS011;7730;49.610;11.136;2022-09-30T09:36:47;9.27;;;4.00;;
15254;SDS011;7730;49.610;11.136;2022-09-30T09:39:21;7.65;;;3.85;;
15254;SDS011;7730;49.610;11.136;2022-09-30T09:41:53;9.05;;;3.78;;
15254;SDS011;7730;49.610;11.136;2022-09-30T09:44:23;13.88;;;3.90;;
15254;SDS011;7730;49.610;11.136;2022-09-30T09:46:52;5.78;;;3.25;;
15254;SDS011;7730;49.610;11.136;2022-09-30T09:49:29;9.68;;;3.78;;
15254;SDS011;7730;49.610;11.136;2022-09-30T09:52:04;7.40;;;3.53;;
15254;SDS011;7730;49.610;11.136;2022-09-30T09:54:38;9.95;;;3.70;;
15254;SDS011;7730;49.610;11.136;2022-09-30T09:57:06;8.98;;;3.58;;
15254;SDS011;7730;49.610;11.136;2022-09-30T09:59:34;9.95;;;3.95;;
15254;SDS011;7730;49.610;11.136;2022-09-30T10:02:01;12.52;;;4.60;;
15254;SDS011;7730;49.610;11.136;2022-09-30T10:04:29;18.90;;;4.25;;
15254;SDS011;7730;49.610;11.136;2022-09-30T10:06:58;11.45;;;4.20;;
15254;SDS011;7730;49.610;11.136;2022-09-30T10:09:29;9.55;;;3.80;;
15254;SDS011;7730;49.610;11.136;2022-09-30T10:12:20;9.73;;;3.85;;
15254;SDS011;7730;49.610;11.136;2022-09-30T10:14:54;10.07;;;3.90;;
15254;SDS011;7730;49.610;11.136;2022-09-30T10:17:25;15.05;;;4.50;;
15254;SDS011;7730;49.610;11.136;2022-09-30T10:19:56;15.90;;;4.30;;
15254;SDS011;7730;49.610;11.136;2022-09-30T10:22:26;10.00;;;4.38;;
15254;SDS011;7730;49.610;11.136;2022-09-30T10:25:07;10.52;;;4.18;;
15254;SDS011;7730;49.610;11.136;2022-09-30T10:27:35;17.65;;;5.35;;
15254;SDS011;7730;49.610;11.136;2022-09-30T10:30:03;9.88;;;3.80;;
15254;SDS011;7730;49.610;11.136;2022-09-30T10:32:30;10.05;;;3.80;;
15254;SDS011;7730;49.610;11.136;2022-09-30T10:35:00;10.77;;;3.90;;
15254;SDS011;7730;49.610;11.136;2022-09-30T10:37:28;16.30;;;4.80;;
15254;SDS011;7730;49.610;11.136;2022-09-30T10:39:56;12.52;;;4.25;;
15254;SDS011;7730;49.610;11.136;2022-09-30T10:42:25;13.45;;;3.90;;
15254;SDS011;7730;49.610;11.136;2022-09-30T10:44:54;10.15;;;2.70;;
15254;SDS011;7730;49.610;11.136;2022-09-30T10:47:22;6.22;;;2.60;;
15254;SDS011;7730;49.610;11.136;2022-09-30T10:49:50;12.52;;;2.97;;
15254;SDS011;7730;49.610;11.136;2022-09-30T10:52:22;6.07;;;2.50;;
15254;SDS011;7730;49.610;11.136;2022-09-30T10:54:50;6.72;;;2.90;;
15254;SDS011;7730;49.610;11.136;2022-09-30T10:57:19;7.03;;;2.95;;
15254;SDS011;7730;49.610;11.136;2022-09-30T10:59:47;9.13;;;2.83;;
15254;SDS011;7730;49.610;11.136;2022-09-30T11:02:17;6.45;;;2.70;;
15254;SDS011;7730;49.610;11.136;2022-09-30T11:04:47;7.63;;;2.40;;
15254;SDS011;7730;49.610;11.136;2022-09-30T11:07:17;8.70;;;2.70;;
15254;SDS011;7730;49.610;11.136;2022-09-30T11:09:51;7.35;;;2.65;;
15254;SDS011;7730;49.610;11.136;2022-09-30T11:12:22;8.60;;;2.85;;
15254;SDS011;7730;49.610;11.136;2022-09-30T11:14:54;9.43;;;3.33;;
15254;SDS011;7730;49.610;11.136;2022-09-30T11:17:27;6.63;;;2.80;;
15254;SDS011;7730;49.610;11.136;2022-09-30T11:19:58;10.20;;;3.58;;
15254;SDS011;7730;49.610;11.136;2022-09-30T11:22:32;9.07;;;3.20;;
15254;SDS011;7730;49.610;11.136;2022-09-30T11:25:04;7.63;;;3.20;;
15254;SDS011;7730;49.610;11.136;2022-09-30T11:27:36;9.40;;;3.20;;
15254;SDS011;7730;49.610;11.136;2022-09-30T11:30:09;9.52;;;3.20;;
15254;SDS011;7730;49.610;11.136;2022-09-30T11:32:46;7.72;;;3.05;;
15254;SDS011;7730;49.610;11.136;2022-09-30T11:35:22;11.35;;;3.20;;
15254;SDS011;7730;49.610;11.136;2022-09-30T11:38:01;9.40;;;3.15;;
15254;SDS011;7730;49.610;11.136;2022-09-30T11:40:32;8.85;;;3.28;;
15254;SDS011;7730;49.610;11.136;2022-09-30T11:43:04;8.30;;;3.00;;
15254;SDS011;7730;49.610;11.136;2022-09-30T11:45:36;10.32;;;3.10;;
15254;SDS011;7730;49.610;11.136;2022-09-30T11:48:12;7.75;;;3.45;;
15254;SDS011;7730;49.610;11.136;2022-09-30T11:50:46;9.50;;;4.07;;
15254;SDS011;7730;49.610;11.136;2022-09-30T11:53:19;8.23;;;3.10;;
15254;SDS011;7730;49.610;11.136;2022-09-30T11:55:59;6.43;;;3.03;;
15254;SDS011;7730;49.610;11.136;2022-09-30T11:58:30;7.20;;;3.08;;
15254;SDS011;7730;49.610;11.136;2022-09-30T12:01:00;6.65;;;2.95;;
15254;SDS011;7730;49.610;11.136;2022-09-30T12:03:32;6.20;;;2.92;;
15254;SDS011;7730;49.610;11.136;2022-09-30T12:06:01;7.90;;;3.00;;
15254;SDS011;7730;49.610;11.136;2022-09-30T12:08:32;6.60;;;2.92;;
15254;SDS011;7730;49.610;11.136;2022-09-30T12:11:03;6.63;;;2.72;;
15254;SDS011;7730;49.610;11.136;2022-09-30T12:13:34;8.00;;;2.75;;
15254;SDS011;7730;49.610;11.136;2022-09-30T12:16:03;9.48;;;2.95;;
15254;SDS011;7730;49.610;11.136;2022-09-30T12:18:33;12.63;;;3.25;;
15254;SDS011;7730;49.610;11.136;2022-09-30T12:21:03;12.95;;;3.10;;
15254;SDS011;7730;49.610;11.136;2022-09-30T12:23:37;9.15;;;2.90;;
15254;SDS011;7730;49.610;11.136;2022-09-30T12:26:06;8.43;;;2.70;;
15254;SDS011;7730;49.610;11.136;2022-09-30T12:28:34;11.70;;;2.90;;
15254;SDS011;7730;49.610;11.136;2022-09-30T12:31:28;39.95;;;4.68;;
15254;SDS011;7730;49.610;11.136;2022-09-30T12:34:00;7.80;;;2.97;;
15254;SDS011;7730;49.610;11.136;2022-09-30T12:36:42;10.40;;;3.30;;
15254;SDS011;7730;49.610;11.136;2022-09-30T12:42:07;16.55;;;3.83;;
15254;SDS011;7730;49.610;11.136;2022-09-30T12:44:43;9.10;;;3.40;;
15254;SDS011;7730;49.610;11.136;2022-09-30T12:47:18;9.88;;;3.50;;
15254;SDS011;7730;49.610;11.136;2022-09-30T12:49:48;11.80;;;3.83;;
15254;SDS011;7730;49.610;11.136;2022-09-30T12:52:16;9.25;;;3.65;;
15254;SDS011;7730;49.610;11.136;2022-09-30T12:54:46;9.77;;;3.75;;
15254;SDS011;7730;49.610;11.136;2022-09-30T12:57:18;9.00;;;3.75;;
15254;SDS011;7730;49.610;11.136;2022-09-30T12:59:47;9.23;;;3.58;;
15254;SDS011;7730;49.610;11.136;2022-09-30T13:02:24;9.55;;;3.22;;
15254;SDS011;7730;49.610;11.136;2022-09-30T13:04:53;13.48;;;3.78;;
15254;SDS011;7730;49.610;11.136;2022-09-30T13:07:21;4.97;;;2.90;;
15254;SDS011;7730;49.610;11.136;2022-09-30T13:09:55;5.97;;;2.72;;
15254;SDS011;7730;49.610;11.136;2022-09-30T13:12:25;9.60;;;3.35;;
15254;SDS011;7730;49.610;11.136;2022-09-30T13:17:39;6.13;;;2.85;;
15254;SDS011;7730;49.610;11.136;2022-09-30T13:22:53;7.60;;;2.80;;
15254;SDS011;7730;49.610;11.136;2022-09-30T13:25:20;5.97;;;2.58;;
15254;SDS011;7730;49.610;11.136;2022-09-30T13:27:49;8.27;;;3.00;;
15254;SDS011;7730;49.610;11.136;2022-09-30T13:35:56;7.35;;;2.85;;
15254;SDS011;7730;49.610;11.136;2022-09-30T13:38:32;5.43;;;2.40;;
15254;SDS011;7730;49.610;11.136;2022-09-30T13:41:01;5.63;;;2.70;;
15254;SDS011;7730;49.610;11.136;2022-09-30T13:43:31;9.57;;;3.10;;
15254;SDS011;7730;49.610;11.136;2022-09-30T13:46:03;8.55;;;2.72;;
15254;SDS011;7730;49.610;11.136;2022-09-30T13:48:32;9.98;;;2.80;;
15254;SDS011;7730;49.610;11.136;2022-09-30T13:51:02;7.00;;;2.42;;
15254;SDS011;7730;49.610;11.136;2022-09-30T13:53:31;9.57;;;3.05;;
15254;SDS011;7730;49.610;11.136;2022-09-30T13:56:03;7.38;;;3.00;;
15254;SDS011;7730;49.610;11.136;2022-09-30T13:58:41;5.18;;;2.60;;
15254;SDS011;7730;49.610;11.136;2022-09-30T14:01:12;6.95;;;2.83;;
15254;SDS011;7730;49.610;11.136;2022-09-30T14:03:49;8.75;;;3.08;;
15254;SDS011;7730;49.610;11.136;2022-09-30T14:06:24;8.32;;;3.55;;
15254;SDS011;7730;49.610;11.136;2022-09-30T14:09:12;13.82;;;3.70;;
15254;SDS011;7730;49.610;11.136;2022-09-30T14:11:50;6.93;;;3.33;;
15254;SDS011;7730;49.610;11.136;2022-09-30T14:14:36;9.93;;;3.60;;
15254;SDS011;7730;49.610;11.136;2022-09-30T14:17:10;15.32;;;3.97;;
15254;SDS011;7730;49.610;11.136;2022-09-30T14:19:50;8.13;;;3.58;;
15254;SDS011;7730;49.610;11.136;2022-09-30T14:22:21;10.63;;;3.40;;
15254;SDS011;7730;49.610;11.136;2022-09-30T14:24:51;10.35;;;3.40;;
15254;SDS011;7730;49.610;11.136;2022-09-30T14:27:21;11.32;;;4.50;;
15254;SDS011;7730;49.610;11.136;2022-09-30T14:29:54;12.13;;;4.03;;
15254;SDS011;7730;49.610;11.136;2022-09-30T14:32:25;10.10;;;3.75;;
15254;SDS011;7730;49.610;11.136;2022-09-30T14:34:53;11.48;;;4.10;;
15254;SDS011;7730;49.610;11.136;2022-09-30T14:37:22;9.80;;;4.00;;
15254;SDS011;7730;49.610;11.136;2022-09-30T14:39:50;13.80;;;5.28;;
15254;SDS011;7730;49.610;11.136;2022-09-30T14:42:19;8.02;;;3.65;;
15254;SDS011;7730;49.610;11.136;2022-09-30T14:44:49;10.07;;;3.42;;
15254;SDS011;7730;49.610;11.136;2022-09-30T14:47:19;9.45;;;3.67;;
15254;SDS011;7730;49.610;11.136;2022-09-30T14:49:47;12.25;;;3.85;;
15254;SDS011;7730;49.610;11.136;2022-09-30T14:52:33;7.18;;;3.10;;
15254;SDS011;7730;49.610;11.136;2022-09-30T14:55:00;9.25;;;3.30;;
15254;SDS011;7730;49.610;11.136;2022-09-30T14:57:28;7.85;;;3.22;;
15254;SDS011;7730;49.610;11.136;2022-09-30T15:02:43;8.10;;;2.95;;
15254;SDS011;7730;49.610;11.136;2022-09-30T15:05:11;6.75;;;3.08;;
15254;SDS011;7730;49.610;11.136;2022-09-30T15:07:39;10.45;;;3.42;;
15254;SDS011;7730;49.610;11.136;2022-09-30T15:10:13;9.23;;;3.30;;
15254;SDS011;7730;49.610;11.136;2022-09-30T15:12:42;8.52;;;3.30;;
15254;SDS011;7730;49.610;11.136;2022-09-30T15:15:21;8.23;;;3.10;;
15254;SDS011;7730;49.610;11.136;2022-09-30T15:17:50;6.18;;;2.90;;
15254;SDS011;7730;49.610;11.136;2022-09-30T15:20:23;8.85;;;3.20;;
15254;SDS011;7730;49.610;11.136;2022-09-30T15:22:51;6.25;;;2.75;;
15254;SDS011;7730;49.610;11.136;2022-09-30T15:25:19;6.75;;;2.60;;